Time;durP1;ratioP1;P1;durP2;ratioP2;P2;SDS_P1;SDS_P2;PMS_P1;PMS_P2;Temp;Humidity;BMP_temperature;BMP_pressure;BME280_temperature;BME280_humidity;BME280_pressure;Samples;Min_cycle;Max_cycle;Signal;HPM_P1;HPM_P2
2023/10/08 00:01:17;;;;;;;10.80;4.40;;;;;;;17.07;88.24;98655.30;270861;1271;22594;-83
2023/10/08 00:07:27;;;;;;;11.00;3.70;;;;;;;17.09;88.18;98652.02;270218;1271;22196;-83
2023/10/08 00:13:48;;;;;;;8.30;3.20;;;;;;;17.13;88.07;98647.27;271469;1270;22305;-83
2023/10/08 00:19:52;;;;;;;10.80;3.30;;;;;;;17.15;87.66;98643.73;272041;1270;22980;-84
2023/10/08 00:25:54;;;;;;;12.20;4.10;;;;;;;17.13;87.79;98643.70;272320;1270;22421;-85
2023/10/08 00:32:11;;;;;;;8.40;3.70;;;;;;;17.01;88.12;98654.84;271758;1270;25272;-84
2023/10/08 00:38:20;;;;;;;11.20;3.80;;;;;;;16.83;88.79;98658.93;271301;1265;22512;-83
2023/10/08 00:44:23;;;;;;;8.50;3.60;;;;;;;16.65;89.36;98659.04;271050;1271;24196;-83
2023/10/08 00:50:31;;;;;;;9.40;3.20;;;;;;;16.47;90.07;98665.73;270885;1270;22292;-82
2023/10/08 01:03:00;;;;;;;10.30;3.70;;;;;;;16.06;92.59;98672.81;271535;1270;22306;-82
2023/10/08 01:09:18;;;;;;;11.50;4.40;;;;;;;15.87;94.25;98676.41;272517;1270;23145;-82
2023/10/08 01:15:24;;;;;;;;;;;;;;;15.71;95.85;98678.23;272573;1270;23665;-82
2023/10/08 01:21:45;;;;;;;;;;;;;;;;;;;;;
2023/10/08 01:28:00;;;;;;;10.20;3.90;;;;;;;15.44;98.84;98670.73;272930;1270;23092;-84
2023/10/08 01:34:04;;;;;;;11.30;4.70;;;;;;;15.35;99.87;98667.14;272935;1271;23184;-83
2023/10/08 01:40:07;;;;;;;4.70;2.30;;;;;;;15.19;99.60;98670.55;270859;1264;23711;-83
2023/10/08 01:46:11;;;;;;;2.30;1.50;;;;;;;14.95;99.96;98680.94;269353;1270;22203;-83
2023/10/08 01:52:20;;;;;;;2.00;1.10;;;;;;;14.77;100.00;98682.23;269605;1271;23450;-82
2023/10/08 01:58:25;;;;;;;1.60;0.80;;;;;;;14.64;100.00;98684.88;271090;1271;22460;-82
2023/10/08 02:04:26;;;;;;;2.60;0.50;;;;;;;14.50;100.00;98693.13;272526;1259;24988;-82
2023/10/08 02:10:29;;;;;;;1.20;0.50;;;;;;;14.39;100.00;98692.44;273045;1270;22307;-83
2023/10/08 02:16:33;;;;;;;0.20;0.10;;;;;;;13.97;100.00;98706.82;272518;1271;22394;-83
2023/10/08 02:22:55;;;;;;;2.10;0.10;;;;;;;13.37;100.00;98731.58;272477;1265;26645;-84
2023/10/08 02:28:59;;;;;;;2.00;0.10;;;;;;;12.97;100.00;98723.88;271175;1272;22574;-83
2023/10/08 02:35:01;;;;;;;0.80;0.20;;;;;;;12.66;100.00;98732.48;272091;1271;22398;-82
2023/10/08 02:41:06;;;;;;;1.80;1.60;;;;;;;12.39;100.00;98747.80;273059;1272;22323;-83
2023/10/08 02:47:20;;;;;;;4.70;2.30;;;;;;;12.19;100.00;98753.60;272563;1271;22203;-82
2023/10/08 02:53:25;;;;;;;2.60;1.70;;;;;;;11.99;100.00;98772.08;272680;1271;22202;-82
2023/10/08 02:59:44;;;;;;;0.40;0.40;;;;;;;11.85;100.00;98767.89;272576;1271;23131;-85
2023/10/08 03:05:50;;;;;;;1.00;0.60;;;;;;;11.76;100.00;98769.11;272519;1259;22220;-82
2023/10/08 03:11:53;;;;;;;1.20;0.80;;;;;;;11.66;100.00;98783.20;272440;1269;22146;-83
2023/10/08 03:17:57;;;;;;;1.10;0.20;;;;;;;11.62;100.00;98786.06;272149;1270;22243;-82
2023/10/08 03:23:59;;;;;;;0.70;0.20;;;;;;;11.56;100.00;98784.39;272210;1270;23739;-82
2023/10/08 03:30:01;;;;;;;3.20;1.20;;;;;;;11.58;100.00;98780.16;272264;1271;22317;-83
2023/10/08 03:36:10;;;;;;;0.90;0.30;;;;;;;11.63;100.00;98790.30;272702;1269;22197;-82
2023/10/08 03:42:20;;;;;;;0.50;0.10;;;;;;;11.66;100.00;98783.04;271712;1271;22346;-82
2023/10/08 03:48:22;;;;;;;0.20;0.10;;;;;;;11.57;100.00;98787.12;272680;1270;167027;-82
2023/10/08 03:54:30;;;;;;;0.60;0.20;;;;;;;11.42;100.00;98797.95;270124;1272;22243;-82
2023/10/08 04:00:32;;;;;;;0.50;0.30;;;;;;;11.20;100.00;98837.20;269731;1270;22600;-83
2023/10/08 04:12:43;;;;;;;1.40;0.30;;;;;;;10.98;100.00;98880.50;272265;1270;23583;-83
2023/10/08 04:18:50;;;;;;;1.80;0.20;;;;;;;10.90;100.00;98890.84;269893;1272;23396;-82
2023/10/08 04:24:53;;;;;;;2.20;0.40;;;;;;;10.85;100.00;98916.55;272840;1271;22574;-81
2023/10/08 04:31:01;;;;;;;1.00;0.60;;;;;;;10.89;100.00;98921.66;270486;1270;22586;-82
2023/10/08 04:37:20;;;;;;;2.60;0.40;;;;;;;10.82;100.00;98955.86;270011;1272;22370;-83
2023/10/08 04:43:30;;;;;;;2.00;0.40;;;;;;;10.57;100.00;98977.27;271602;1270;22195;-82
2023/10/08 04:49:34;;;;;;;1.90;0.40;;;;;;;10.37;100.00;98986.60;272760;1272;22344;-81
2023/10/08 04:55:41;;;;;;;1.50;0.50;;;;;;;10.38;100.00;98988.25;272771;1266;23668;-82
2023/10/08 05:08:21;;;;;;;4.80;0.80;;;;;;;10.44;100.00;99014.67;272328;1263;23433;-82
2023/10/08 05:20:58;;;;;;;3.80;1.00;;;;;;;10.50;100.00;99050.32;273092;1272;22297;-82
2023/10/08 05:27:37;;;;;;;4.10;0.80;;;;;;;10.45;100.00;99063.24;272896;1271;22200;-82
2023/10/08 05:39:55;;;;;;;5.10;1.40;;;;;;;10.51;100.00;99075.35;273406;1271;22158;-82
2023/10/08 05:52:41;;;;;;;4.60;1.00;;;;;;;10.46;100.00;99115.10;272885;1272;22284;-82
2023/10/08 05:58:59;;;;;;;3.40;0.90;;;;;;;10.36;100.00;99131.08;272664;1272;22210;-85
2023/10/08 06:11:44;;;;;;;7.60;0.90;;;;;;;10.33;100.00;99158.23;272887;1272;22215;-82
2023/10/08 06:18:04;;;;;;;4.80;1.30;;;;;;;10.34;100.00;99177.09;272628;1272;23872;-82
2023/10/08 06:24:16;;;;;;;3.70;1.40;;;;;;;10.36;100.00;99171.96;273072;1272;22293;-82
2023/10/08 06:30:18;;;;;;;6.80;1.80;;;;;;;10.38;100.00;99194.73;272221;1272;24346;-83
2023/10/08 06:36:24;;;;;;;4.20;1.90;;;;;;;10.37;100.00;99205.27;272303;1272;24225;-82
2023/10/08 06:42:29;;;;;;;6.00;2.00;;;;;;;10.38;100.00;99223.91;272113;1272;22983;-82
2023/10/08 06:48:31;;;;;;;6.90;1.50;;;;;;;10.34;100.00;99235.56;272630;1272;22688;-82
2023/10/08 06:54:57;;;;;;;5.30;1.40;;;;;;;10.33;100.00;99235.15;273182;1272;22158;-82
2023/10/08 07:01:05;;;;;;;5.20;2.00;;;;;;;10.33;100.00;99241.80;269632;1272;22560;-82
2023/10/08 07:07:09;;;;;;;7.00;2.40;;;;;;;10.32;100.00;99250.16;270140;1272;22191;-81
2023/10/08 07:13:21;;;;;;;8.30;2.80;;;;;;;10.28;100.00;99268.39;272815;1272;22387;-81
2023/10/08 07:19:32;;;;;;;4.60;2.00;;;;;;;10.24;100.00;99267.85;271719;1271;24819;-81
2023/10/08 07:25:37;;;;;;;6.30;2.00;;;;;;;10.20;100.00;99276.08;270013;1272;22626;-81
2023/10/08 07:31:42;;;;;;;5.40;1.80;;;;;;;10.20;100.00;99281.15;269595;1272;22532;-81
2023/10/08 07:37:57;;;;;;;5.10;1.60;;;;;;;10.21;100.00;99286.24;270462;1271;22597;-81
2023/10/08 07:44:08;;;;;;;6.20;2.20;;;;;;;10.30;100.00;99291.16;270915;1272;22545;-81
2023/10/08 07:50:13;;;;;;;6.90;2.80;;;;;;;10.36;100.00;99297.83;270580;1272;26667;-80
2023/10/08 07:56:17;;;;;;;7.80;2.60;;;;;;;10.42;100.00;99301.07;271580;1272;22211;-82
2023/10/08 08:02:34;;;;;;;7.10;2.80;;;;;;;10.51;100.00;99311.77;272666;1272;22225;-81
2023/10/08 08:08:37;;;;;;;8.20;3.00;;;;;;;10.75;100.00;99320.67;271708;1272;22186;-82
2023/10/08 08:14:41;;;;;;;7.70;2.60;;;;;;;11.19;100.00;99325.86;272626;1272;22194;-82
2023/10/08 08:20:43;;;;;;;7.20;2.80;;;;;;;11.41;100.00;99326.79;271022;1272;22560;-81
2023/10/08 08:27:01;;;;;;;7.60;2.80;;;;;;;11.31;100.00;99341.61;271022;1272;22499;-82
2023/10/08 08:33:10;;;;;;;6.80;2.70;;;;;;;11.37;100.00;99355.00;270172;1272;23063;-82
2023/10/08 08:39:23;;;;;;;5.50;3.00;;;;;;;11.29;100.00;99355.83;272703;1272;23081;-82
2023/10/08 08:45:33;;;;;;;7.10;2.80;;;;;;;11.27;100.00;99359.64;271834;1272;22321;-82
2023/10/08 08:51:42;;;;;;;5.60;1.90;;;;;;;11.36;100.00;99361.64;272609;1272;22449;-81
2023/10/08 08:57:50;;;;;;;7.00;2.60;;;;;;;11.90;100.00;99366.17;272272;1271;23464;-84
2023/10/08 09:04:06;;;;;;;3.50;1.90;;;;;;;12.55;100.00;99381.01;271983;1272;22301;-82
2023/10/08 09:10:12;;;;;;;5.80;2.30;;;;;;;12.66;100.00;99385.73;272578;1263;22456;-81
2023/10/08 09:16:34;;;;;;;8.20;2.60;;;;;;;12.63;100.00;99389.70;272772;1271;22216;-83
2023/10/08 09:22:36;;;;;;;4.40;1.80;;;;;;;13.14;100.00;99391.15;272702;1272;22212;-82
2023/10/08 09:28:41;;;;;;;4.20;1.90;;;;;;;13.43;100.00;99396.23;272666;1272;23342;-83
2023/10/08 09:34:43;;;;;;;6.90;2.50;;;;;;;13.39;100.00;99400.06;272618;1272;22189;-83
2023/10/08 09:40:45;;;;;;;3.90;2.00;;;;;;;13.87;99.73;99404.77;273072;1270;22343;-83
2023/10/08 09:47:11;;;;;;;3.20;1.70;;;;;;;14.85;97.02;99409.61;272700;1272;23134;-83
2023/10/08 09:53:16;;;;;;;4.10;1.90;;;;;;;15.79;93.81;99416.54;270709;1272;23685;-83
2023/10/08 09:59:40;;;;;;;3.40;1.20;;;;;;;16.59;91.40;99423.61;271884;1272;22424;-83
2023/10/08 10:05:44;;;;;;;2.80;1.30;;;;;;;16.92;86.51;99434.06;272690;1272;22922;-83
2023/10/08 10:11:50;;;;;;;4.10;1.50;;;;;;;17.31;84.49;99435.41;272656;1272;22302;-83
2023/10/08 10:17:52;;;;;;;3.40;1.60;;;;;;;17.57;82.38;99436.12;272008;1272;22329;-84
2023/10/08 10:23:56;;;;;;;3.10;1.50;;;;;;;17.67;78.24;99440.70;273214;1272;22154;-83
2023/10/08 10:30:08;;;;;;;3.80;1.70;;;;;;;17.00;76.44;99450.72;272399;1271;23000;-83
2023/10/08 10:36:13;;;;;;;3.40;1.70;;;;;;;15.97;76.20;99463.04;272211;1272;23062;-84
2023/10/08 10:42:20;;;;;;;4.70;1.70;;;;;;;15.70;73.25;99472.10;272716;1272;22198;-84
2023/10/08 10:48:25;;;;;;;2.60;1.30;;;;;;;15.28;70.95;99479.29;270718;1272;22518;-83
2023/10/08 10:54:36;;;;;;;1.50;0.80;;;;;;;15.02;68.93;99482.26;272420;1262;22186;-84
2023/10/08 11:06:47;;;;;;;2.70;1.10;;;;;;;14.34;65.63;99493.04;271093;1266;22392;-83
2023/10/08 11:13:15;;;;;;;3.80;1.50;;;;;;;13.98;64.83;99495.91;271813;1272;23207;-83
2023/10/08 11:19:27;;;;;;;4.70;1.40;;;;;;;13.94;64.79;99497.23;270638;1271;22407;-83
2023/10/08 11:25:30;;;;;;;2.50;1.30;;;;;;;13.94;62.99;99498.10;271942;1267;22320;-82
2023/10/08 11:31:35;;;;;;;2.40;1.10;;;;;;;13.89;62.12;99499.86;272223;1272;22576;-82
2023/10/08 11:37:38;;;;;;;1.40;0.60;;;;;;;13.81;62.48;99501.15;272844;1272;22130;-83
2023/10/08 11:43:40;;;;;;;2.00;1.00;;;;;;;13.51;61.26;99511.79;272826;1272;22153;-82
2023/10/08 11:50:09;;;;;;;2.70;0.90;;;;;;;13.05;60.67;99505.91;271743;1272;22547;-83
2023/10/08 11:56:14;;;;;;;3.40;1.10;;;;;;;12.94;59.62;99511.59;270574;1269;23052;-82
2023/10/08 12:02:20;;;;;;;2.40;1.00;;;;;;;12.78;59.32;99524.77;270915;1272;23613;-83
2023/10/08 12:08:22;;;;;;;3.60;1.20;;;;;;;12.72;59.22;99525.96;271697;1272;23465;-84
2023/10/08 12:14:30;;;;;;;2.30;1.00;;;;;;;12.77;58.39;99533.47;271574;1272;23195;-84
2023/10/08 12:20:34;;;;;;;2.50;1.30;;;;;;;12.76;57.34;99542.02;272973;1272;22224;-83
2023/10/08 12:26:47;;;;;;;3.30;1.10;;;;;;;12.73;56.41;99544.48;272901;1272;22230;-82
2023/10/08 12:32:49;;;;;;;2.90;0.90;;;;;;;12.61;55.60;99545.93;272796;1272;22412;-83
2023/10/08 12:38:57;;;;;;;3.30;1.10;;;;;;;12.56;55.73;99559.13;272592;1272;22569;-83
2023/10/08 12:45:13;;;;;;;3.00;1.10;;;;;;;12.50;55.64;99569.71;271438;1271;22218;-82
2023/10/08 12:51:15;;;;;;;2.90;1.00;;;;;;;12.44;55.63;99567.59;271969;1270;23202;-81
2023/10/08 12:57:20;;;;;;;2.30;0.80;;;;;;;12.38;55.16;99571.23;271474;1272;22909;-86
2023/10/08 13:03:24;;;;;;;2.60;1.30;;;;;;;12.34;55.05;99568.58;271029;1270;22224;-82
2023/10/08 13:09:26;;;;;;;3.70;1.40;;;;;;;12.28;54.46;99574.07;271611;1270;23511;-83
2023/10/08 13:15:35;;;;;;;4.30;0.80;;;;;;;12.26;53.91;99576.94;272173;1272;22543;-82
2023/10/08 13:21:39;;;;;;;1.80;1.10;;;;;;;12.17;53.48;99577.90;270345;1272;22626;-82
2023/10/08 13:27:41;;;;;;;1.90;0.90;;;;;;;12.07;53.71;99580.35;270073;1272;23512;-81
2023/10/08 13:33:44;;;;;;;3.70;1.10;;;;;;;11.97;53.74;99594.48;270230;1272;22950;-83
2023/10/08 13:39:46;;;;;;;3.50;1.20;;;;;;;11.86;53.12;99603.09;271478;1267;22342;-83
2023/10/08 13:45:48;;;;;;;4.00;1.40;;;;;;;11.77;52.61;99606.16;272237;1272;22167;-82
2023/10/08 13:51:55;;;;;;;3.70;1.10;;;;;;;11.73;52.65;99616.75;271009;1272;22584;-81
2023/10/08 13:57:58;;;;;;;2.40;0.90;;;;;;;11.67;52.41;99633.66;271590;1272;24102;-82
2023/10/08 14:04:06;;;;;;;3.70;1.20;;;;;;;11.61;52.78;99642.06;269966;1272;22426;-83
2023/10/08 14:10:08;;;;;;;6.00;1.40;;;;;;;11.54;53.07;99650.16;270017;1272;24130;-82
2023/10/08 14:16:11;;;;;;;3.00;1.40;;;;;;;11.43;53.43;99657.51;270726;1272;22208;-82
2023/10/08 14:22:16;;;;;;;2.20;1.00;;;;;;;11.29;53.40;99658.50;271299;1270;23295;-82
2023/10/08 14:28:40;;;;;;;3.40;1.10;;;;;;;11.19;53.60;99661.65;270142;1270;23476;-83
2023/10/08 14:48:13;;;;;;;3.80;1.50;;;;;;;10.92;53.35;99678.13;271164;1270;22420;-81
2023/10/08 14:54:17;;;;;;;3.30;1.20;;;;;;;10.83;53.66;99679.33;269793;1272;24289;-81
2023/10/08 15:00:24;;;;;;;3.30;1.40;;;;;;;10.76;54.53;99687.86;272248;1271;22219;-83
2023/10/08 15:06:26;;;;;;;2.20;1.10;;;;;;;10.69;54.55;99698.13;271819;1272;22260;-83
2023/10/08 15:12:28;;;;;;;4.10;1.60;;;;;;;10.64;54.42;99713.91;272362;1270;22282;-82
2023/10/08 15:18:32;;;;;;;3.20;1.20;;;;;;;10.57;54.04;99727.27;272628;1271;22422;-82
2023/10/08 15:24:39;;;;;;;2.80;1.00;;;;;;;10.47;53.83;99735.71;272591;1270;23236;-82
2023/10/08 15:30:41;;;;;;;5.10;1.50;;;;;;;10.35;53.96;99741.62;272693;1271;23397;-83
2023/10/08 15:36:45;;;;;;;1.50;0.90;;;;;;;10.23;54.11;99745.69;272759;1257;24182;-83
2023/10/08 15:42:53;;;;;;;2.80;1.20;;;;;;;10.12;54.58;99766.23;272754;1271;22317;-82
2023/10/08 15:48:55;;;;;;;2.90;1.50;;;;;;;10.00;55.02;99774.96;272583;1272;294004;-83
2023/10/08 15:54:58;;;;;;;5.80;1.40;;;;;;;9.89;55.88;99783.48;272815;1270;23507;-85
2023/10/08 16:01:00;;;;;;;4.10;1.40;;;;;;;9.76;56.31;99802.20;272698;1272;22208;-84
2023/10/08 16:07:02;;;;;;;3.70;1.40;;;;;;;9.65;57.33;99815.74;272856;1270;22443;-83
2023/10/08 16:13:05;;;;;;;4.80;1.70;;;;;;;9.54;58.97;99818.71;272071;1270;23706;-83
2023/10/08 16:19:08;;;;;;;3.00;1.20;;;;;;;9.38;59.92;99813.57;271028;1271;22271;-82
2023/10/08 16:25:14;;;;;;;2.70;1.40;;;;;;;9.24;60.42;99813.25;270719;1270;22714;-82
2023/10/08 16:31:17;;;;;;;3.20;1.50;;;;;;;9.12;62.08;99829.48;269498;1264;24311;-82
2023/10/08 16:37:22;;;;;;;4.50;1.70;;;;;;;8.98;62.37;99847.66;271558;1270;22315;-81
2023/10/08 16:43:25;;;;;;;4.30;1.90;;;;;;;8.84;63.09;99850.56;271528;1270;22137;-81
2023/10/08 16:49:29;;;;;;;3.90;1.30;;;;;;;8.67;64.66;99858.76;270345;1270;22546;-81
2023/10/08 16:55:33;;;;;;;3.00;1.40;;;;;;;8.52;64.22;99869.65;270116;1270;22571;-81
2023/10/08 17:01:35;;;;;;;8.60;1.70;;;;;;;8.29;63.39;99872.84;271536;1270;22128;-82
2023/10/08 17:07:37;;;;;;;4.90;2.50;;;;;;;8.08;64.93;99887.14;272665;1270;22337;-83
2023/10/08 17:13:41;;;;;;;6.00;2.50;;;;;;;7.93;64.82;99890.72;272623;1272;23393;-84
2023/10/08 17:19:49;;;;;;;5.60;1.80;;;;;;;7.85;65.71;99886.89;271900;1270;23797;-82
2023/10/08 17:25:51;;;;;;;8.20;2.40;;;;;;;7.85;67.64;99898.63;272004;1270;22458;-83
2023/10/08 17:31:59;;;;;;;6.40;2.70;;;;;;;7.77;68.00;99906.95;272911;1270;22218;-83
2023/10/08 17:38:02;;;;;;;8.10;2.90;;;;;;;7.60;67.42;99911.25;272869;1260;22150;-82
2023/10/08 17:44:06;;;;;;;8.30;4.00;;;;;;;7.44;68.63;99915.09;264963;1270;10001460;-81
2023/10/08 17:50:09;;;;;;;7.60;4.00;;;;;;;7.41;68.96;99928.98;272596;1271;22215;-82
2023/10/08 17:56:11;;;;;;;7.30;3.90;;;;;;;7.40;69.63;99937.90;272678;1270;23184;-81
2023/10/08 18:02:13;;;;;;;11.10;4.40;;;;;;;7.36;70.31;99943.48;273170;1270;22189;-81
2023/10/08 18:08:15;;;;;;;9.20;3.70;;;;;;;7.26;70.68;99942.62;272790;1270;22398;-82
2023/10/08 18:14:18;;;;;;;14.90;5.50;;;;;;;7.12;71.71;99940.03;270937;1270;22576;-83
2023/10/08 18:20:20;;;;;;;9.90;4.40;;;;;;;6.91;72.18;99944.12;270877;1272;23403;-82
2023/10/08 18:26:23;;;;;;;9.50;3.90;;;;;;;6.70;73.20;99951.23;271941;1272;22387;-81
2023/10/08 18:32:30;;;;;;;9.80;4.50;;;;;;;6.61;74.59;99952.73;272695;1272;22903;-82
2023/10/08 18:38:32;;;;;;;10.20;4.90;;;;;;;6.51;75.10;99961.58;272791;1271;22328;-81
2023/10/08 18:44:34;;;;;;;12.30;5.30;;;;;;;6.40;74.88;99965.28;273093;1260;22168;-81
2023/10/08 18:50:37;;;;;;;9.80;4.60;;;;;;;6.29;74.65;99968.95;272650;1262;22389;-81
2023/10/08 18:56:40;;;;;;;11.30;4.90;;;;;;;6.19;75.16;99978.76;272312;1271;22295;-81
2023/10/08 19:02:44;;;;;;;12.40;4.70;;;;;;;6.18;75.54;99978.17;272532;1272;22322;-81
2023/10/08 19:08:47;;;;;;;11.60;5.30;;;;;;;6.07;76.10;99976.98;272715;1271;22424;-81
2023/10/08 19:14:49;;;;;;;10.50;5.10;;;;;;;6.04;76.54;99987.02;272309;1271;23073;-82
2023/10/08 19:20:51;;;;;;;8.50;4.50;;;;;;;6.10;77.39;99988.75;272147;1272;22329;-81
2023/10/08 19:27:15;;;;;;;7.90;4.10;;;;;;;6.11;77.99;99997.60;271673;1270;22396;-81
2023/10/08 19:33:17;;;;;;;14.20;4.60;;;;;;;6.07;77.75;99999.87;272696;1270;22534;-81
2023/10/08 19:39:19;;;;;;;8.30;4.10;;;;;;;6.02;78.22;100000.60;271949;1267;23698;-80
2023/10/08 19:45:45;;;;;;;10.80;4.70;;;;;;;6.10;79.66;100002.33;271784;1270;23063;-81
2023/10/08 19:51:49;;;;;;;10.80;4.70;;;;;;;6.18;79.93;99997.21;270884;1265;22602;-81
2023/10/08 19:57:53;;;;;;;13.30;5.50;;;;;;;6.25;80.78;99998.38;272082;1270;22865;-82
2023/10/08 20:03:59;;;;;;;6.90;3.60;;;;;;;6.27;81.38;99999.25;272672;1270;22222;-81
2023/10/08 20:10:17;;;;;;;10.50;4.10;;;;;;;6.14;80.17;100004.24;272037;1270;22448;-81
2023/10/08 20:16:19;;;;;;;7.90;4.20;;;;;;;6.01;80.00;100011.65;271153;1261;22421;-82
2023/10/08 20:22:21;;;;;;;10.00;4.30;;;;;;;5.98;81.74;100017.27;269935;1259;22578;-81
2023/10/08 20:28:23;;;;;;;8.20;4.00;;;;;;;6.09;82.87;100015.95;270095;1272;24190;-80
2023/10/08 20:34:25;;;;;;;12.40;5.30;;;;;;;6.19;83.11;100013.16;271870;1270;22365;-81
2023/10/08 20:40:28;;;;;;;11.70;4.90;;;;;;;6.21;83.31;100014.89;272795;1262;22196;-81
2023/10/08 20:46:33;;;;;;;7.60;4.20;;;;;;;6.20;83.87;100012.37;272651;1270;22316;-83
2023/10/08 20:52:45;;;;;;;9.20;4.50;;;;;;;6.24;84.68;100009.58;272936;1264;22213;-81
2023/10/08 20:58:49;;;;;;;10.20;4.60;;;;;;;6.29;85.06;100007.02;273248;1272;22226;-81
2023/10/08 21:04:53;;;;;;;11.20;5.00;;;;;;;6.26;85.42;100008.58;272819;1270;22183;-81
2023/10/08 21:10:55;;;;;;;10.50;4.50;;;;;;;6.26;86.08;100014.50;272615;1270;22376;-82
2023/10/08 21:16:57;;;;;;;10.80;5.60;;;;;;;6.25;85.92;100023.45;272649;1263;23570;-83
2023/10/08 21:23:04;;;;;;;10.10;5.50;;;;;;;6.18;86.02;100019.98;272746;1267;22317;-81
2023/10/08 21:29:06;;;;;;;10.60;5.00;;;;;;;6.18;86.58;100017.48;272970;1272;23196;-81
2023/10/08 21:35:12;;;;;;;12.40;5.70;;;;;;;6.22;87.22;100020.30;272750;1272;22413;-81
2023/10/08 21:41:15;;;;;;;12.50;5.30;;;;;;;6.25;87.20;100015.14;272725;1272;23146;-81
2023/10/08 21:47:17;;;;;;;12.70;5.30;;;;;;;6.21;87.14;100019.40;272855;1266;22376;-81
2023/10/08 21:53:19;;;;;;;11.20;4.90;;;;;;;6.12;87.43;100020.85;272899;1271;22368;-81
2023/10/08 21:59:21;;;;;;;11.30;4.70;;;;;;;6.09;87.98;100014.52;272823;1270;22328;-81
2023/10/08 22:05:23;;;;;;;11.30;4.70;;;;;;;6.10;88.75;100010.82;272798;1271;22220;-81
2023/10/08 22:11:25;;;;;;;12.40;5.30;;;;;;;6.01;88.99;100006.54;272682;1271;22201;-81
2023/10/08 22:17:32;;;;;;;8.80;4.60;;;;;;;5.91;88.89;100009.12;272921;1272;22460;-81
2023/10/08 22:23:38;;;;;;;;;;;;;;;5.80;88.85;100012.61;272055;1272;22547;-81
2023/10/08 22:29:43;;;;;;;11.60;5.80;;;;;;;5.59;88.88;100011.61;270063;1272;22330;-82
2023/10/08 22:35:49;;;;;;;12.20;6.10;;;;;;;5.51;89.12;100009.91;272811;1272;22414;-82
2023/10/08 22:42:04;;;;;;;12.90;5.40;;;;;;;5.39;89.18;100002.27;272788;1272;22328;-81
2023/10/08 22:48:06;;;;;;;14.70;7.00;;;;;;;5.20;89.54;99990.25;272984;1272;22187;-81
2023/10/08 22:54:09;;;;;;;12.60;7.60;;;;;;;5.18;89.99;99992.48;272691;1272;22339;-81
2023/10/08 23:00:12;;;;;;;11.30;6.80;;;;;;;5.09;89.72;99991.70;272617;1272;22321;-82
2023/10/08 23:06:14;;;;;;;15.40;7.30;;;;;;;4.99;90.04;99985.85;273399;1268;22200;-81
2023/10/08 23:12:20;;;;;;;12.10;6.20;;;;;;;4.89;90.11;99994.66;272492;1267;22340;-83
2023/10/08 23:18:29;;;;;;;13.20;6.10;;;;;;;4.79;90.44;99992.07;272643;1257;23262;-82
2023/10/08 23:24:35;;;;;;;11.20;5.70;;;;;;;4.68;90.73;99985.13;271390;1272;22543;-81
2023/10/08 23:30:37;;;;;;;13.90;6.50;;;;;;;4.59;90.82;99980.64;269698;1272;27488;-81
2023/10/08 23:37:21;;;;;;;14.50;6.30;;;;;;;4.53;91.09;99974.25;270383;1272;24213;-82
2023/10/08 23:43:31;;;;;;;11.00;5.40;;;;;;;4.41;91.14;99975.50;272704;1272;23236;-83
2023/10/08 23:49:47;;;;;;;10.30;5.30;;;;;;;4.29;91.12;99981.63;272652;1272;22289;-81
2023/10/08 23:56:01;;;;;;;10.70;5.60;;;;;;;4.13;91.18;99980.98;272648;1271;22278;-81
